createdAt,value
2018-09-10T00:00:52.320Z,2.80
2018-09-10T00:03:20.544Z,2.07
2018-09-10T00:05:48.734Z,2.30
2018-09-10T00:08:16.935Z,2.30
2018-09-10T00:10:45.128Z,2.03
2018-09-10T00:13:13.348Z,2.63
2018-09-10T00:15:41.570Z,2.03
2018-09-10T00:18:09.730Z,2.20
2018-09-10T00:20:37.906Z,2.30
2018-09-10T00:23:06.092Z,2.40
2018-09-10T00:25:34.278Z,2.00
2018-09-10T00:28:02.434Z,1.40
2018-09-10T00:30:30.619Z,1.90
2018-09-10T00:32:58.801Z,1.57
2018-09-10T00:35:26.987Z,1.37
2018-09-10T00:37:55.202Z,1.70
2018-09-10T00:40:23.427Z,2.10
2018-09-10T00:42:51.595Z,1.70
2018-09-10T00:45:19.859Z,1.97
2018-09-10T00:47:48.075Z,1.60
2018-09-10T00:50:16.255Z,1.80
2018-09-10T00:52:44.486Z,1.90
2018-09-10T00:55:12.653Z,1.90
2018-09-10T00:57:40.830Z,1.77
2018-09-10T01:00:09.040Z,1.70
2018-09-10T01:02:37.279Z,1.70
2018-09-10T01:05:05.515Z,1.50
2018-09-10T01:07:33.788Z,1.80
2018-09-10T01:10:01.965Z,1.60
2018-09-10T01:12:30.175Z,1.80
2018-09-10T01:14:58.339Z,2.03
2018-09-10T01:17:26.598Z,1.77
2018-09-10T01:19:55.134Z,1.50
2018-09-10T01:22:23.563Z,1.90
2018-09-10T01:24:51.775Z,1.87
2018-09-10T01:27:19.995Z,2.53
2018-09-10T01:29:48.193Z,1.90
2018-09-10T01:32:16.352Z,2.40
2018-09-10T01:34:49.824Z,2.70
2018-09-10T01:37:18.044Z,2.50
2018-09-10T01:39:46.253Z,2.90
2018-09-10T01:42:14.442Z,3.07
2018-09-10T01:44:42.639Z,3.17
2018-09-10T01:47:10.874Z,3.30
2018-09-10T01:49:39.079Z,3.70
2018-09-10T01:52:07.263Z,3.87
2018-09-10T01:54:35.466Z,3.70
2018-09-10T01:57:03.646Z,3.70
2018-09-10T01:59:31.842Z,3.50
2018-09-10T02:02:00.023Z,3.63
2018-09-10T02:04:28.223Z,3.73
2018-09-10T02:06:56.446Z,3.53
2018-09-10T02:09:24.642Z,3.50
2018-09-10T02:11:52.831Z,2.90
2018-09-10T02:14:21.023Z,3.07
2018-09-10T02:16:49.233Z,3.17
2018-09-10T02:19:17.406Z,3.00
2018-09-10T02:21:45.619Z,2.93
2018-09-10T02:24:13.855Z,2.37
2018-09-10T02:26:42.054Z,2.00
2018-09-10T02:29:10.306Z,1.90
2018-09-10T02:31:38.458Z,1.80
2018-09-10T02:34:06.656Z,1.87
2018-09-10T02:36:34.843Z,2.00
2018-09-10T02:39:03.055Z,1.90
2018-09-10T02:41:31.299Z,1.93
2018-09-10T02:43:59.503Z,2.07
2018-09-10T02:46:27.691Z,1.60
2018-09-10T02:48:55.883Z,2.10
2018-09-10T02:51:24.067Z,2.10
2018-09-10T02:53:52.232Z,2.30
2018-09-10T02:56:20.419Z,2.27
2018-09-10T02:58:48.615Z,2.17
2018-09-10T03:01:16.784Z,2.47
2018-09-10T03:03:44.942Z,2.50
2018-09-10T03:06:13.144Z,3.23
2018-09-10T03:08:41.359Z,2.90
2018-09-10T03:11:09.580Z,3.50
2018-09-10T03:13:37.804Z,3.77
2018-09-10T03:16:06.018Z,3.77
2018-09-10T03:18:34.217Z,3.90
2018-09-10T03:21:02.481Z,3.97
2018-09-10T03:23:30.673Z,4.07
2018-09-10T03:25:59.014Z,4.27
2018-09-10T03:28:27.170Z,4.37
2018-09-10T03:30:55.391Z,4.33
2018-09-10T03:33:23.603Z,4.50
2018-09-10T03:35:51.806Z,4.37
2018-09-10T03:38:20.001Z,4.20
2018-09-10T03:40:48.235Z,4.33
2018-09-10T03:43:16.456Z,4.10
2018-09-10T03:45:44.666Z,4.10
2018-09-10T03:48:12.871Z,3.90
2018-09-10T03:50:41.077Z,3.77
2018-09-10T03:53:09.298Z,3.87
2018-09-10T03:55:37.462Z,3.73
2018-09-10T03:58:05.662Z,2.97
2018-09-10T04:00:33.907Z,3.10
2018-09-10T04:03:02.108Z,2.73
2018-09-10T04:05:30.296Z,3.00
2018-09-10T04:07:58.545Z,2.93
2018-09-10T04:10:26.727Z,2.37
2018-09-10T04:12:54.955Z,2.20
2018-09-10T04:15:23.135Z,2.27
2018-09-10T04:17:51.314Z,2.10
2018-09-10T04:20:19.471Z,2.40
2018-09-10T04:22:47.712Z,2.50
2018-09-10T04:25:15.885Z,2.90
2018-09-10T04:27:44.141Z,2.27
2018-09-10T04:30:15.448Z,2.67
2018-09-10T04:32:43.722Z,2.70
2018-09-10T04:35:12.361Z,2.43
2018-09-10T04:37:41.123Z,3.23
2018-09-10T04:40:09.318Z,2.77
2018-09-10T04:42:37.589Z,2.87
2018-09-10T04:45:06.176Z,2.80
2018-09-10T04:47:34.383Z,2.93
2018-09-10T04:50:02.856Z,3.07
2018-09-10T04:52:31.089Z,2.87
2018-09-10T04:54:59.440Z,3.57
2018-09-10T04:57:27.695Z,3.10
2018-09-10T04:59:55.940Z,3.33
2018-09-10T05:02:24.105Z,2.97
2018-09-10T05:04:52.283Z,3.80
2018-09-10T05:07:20.439Z,3.60
2018-09-10T05:09:48.658Z,2.90
2018-09-10T05:12:16.849Z,3.23
2018-09-10T05:14:45.028Z,3.00
2018-09-10T05:17:13.179Z,2.90
2018-09-10T05:19:41.406Z,3.07
2018-09-10T05:22:09.725Z,2.60
2018-09-10T05:24:38.267Z,2.90
2018-09-10T05:27:06.461Z,2.47
2018-09-10T05:29:34.647Z,2.97
2018-09-10T05:32:02.872Z,4.27
2018-09-10T05:34:31.174Z,2.73
2018-09-10T05:36:59.386Z,3.17
2018-09-10T05:39:27.611Z,3.10
2018-09-10T05:41:55.775Z,2.80
2018-09-10T05:44:24.002Z,2.90
2018-09-10T05:46:52.298Z,3.23
2018-09-10T05:49:20.549Z,2.80
2018-09-10T05:51:48.707Z,2.70
2018-09-10T05:54:16.882Z,2.90
2018-09-10T05:56:45.078Z,3.17
2018-09-10T05:59:13.297Z,2.60
2018-09-10T06:01:41.479Z,2.80
2018-09-10T06:04:09.650Z,2.77
2018-09-10T06:06:38.845Z,3.10
2018-09-10T06:09:07.389Z,3.80
2018-09-10T06:11:35.660Z,3.00
2018-09-10T06:14:03.967Z,3.43
2018-09-10T06:16:32.143Z,3.90
2018-09-10T06:19:00.518Z,3.60
2018-09-10T06:21:28.699Z,4.03
2018-09-10T06:23:57.615Z,4.27
2018-09-10T06:26:25.910Z,4.33
2018-09-10T06:28:54.178Z,4.77
2018-09-10T06:31:22.385Z,4.30
2018-09-10T06:33:50.558Z,4.57
2018-09-10T06:36:18.762Z,4.50
2018-09-10T06:38:46.988Z,3.87
2018-09-10T06:41:15.204Z,3.70
2018-09-10T06:43:43.386Z,3.90
2018-09-10T06:46:11.687Z,3.83
2018-09-10T06:48:39.880Z,4.20
2018-09-10T06:51:07.989Z,3.83
2018-09-10T06:53:36.229Z,4.57
2018-09-10T06:56:05.279Z,4.33
2018-09-10T06:58:34.195Z,4.00
2018-09-10T07:01:02.567Z,4.30
2018-09-10T07:03:30.749Z,3.87
2018-09-10T07:05:58.954Z,4.50
2018-09-10T07:08:27.367Z,4.40
2018-09-10T07:10:55.563Z,4.70
2018-09-10T07:13:24.126Z,4.57
2018-09-10T07:15:52.579Z,4.23
2018-09-10T07:18:20.759Z,5.73
2018-09-10T07:20:49.016Z,5.40
2018-09-10T07:23:17.184Z,5.13
2018-09-10T07:25:45.372Z,5.37
2018-09-10T07:28:13.734Z,5.03
2018-09-10T07:30:41.973Z,5.50
2018-09-10T07:33:10.179Z,6.47
2018-09-10T07:35:38.405Z,6.50
2018-09-10T07:38:06.626Z,6.40
2018-09-10T07:40:34.879Z,5.87
2018-09-10T07:43:03.062Z,5.30
2018-09-10T07:45:31.292Z,5.67
2018-09-10T07:47:59.556Z,6.30
2018-09-10T07:50:27.737Z,6.40
2018-09-10T07:52:55.935Z,5.70
2018-09-10T07:55:24.159Z,6.97
2018-09-10T07:57:52.318Z,5.30
2018-09-10T08:00:20.499Z,7.07
2018-09-10T08:02:49.051Z,6.50
2018-09-10T08:05:17.287Z,6.40
2018-09-10T08:07:45.453Z,6.87
2018-09-10T08:10:13.671Z,7.67
2018-09-10T08:12:41.894Z,6.23
2018-09-10T08:15:10.124Z,6.83
2018-09-10T08:17:38.377Z,7.27
2018-09-10T08:20:06.667Z,7.60
2018-09-10T08:22:34.898Z,7.23
2018-09-10T08:25:03.103Z,7.10
2018-09-10T08:27:31.249Z,7.97
2018-09-10T08:29:59.515Z,8.57
2018-09-10T08:32:27.726Z,7.00
2018-09-10T08:34:55.986Z,8.30
2018-09-10T08:37:24.171Z,6.60
2018-09-10T08:39:52.372Z,6.37
2018-09-10T08:42:20.538Z,7.13
2018-09-10T08:44:48.742Z,8.40
2018-09-10T08:47:16.977Z,8.07
2018-09-10T08:49:45.181Z,7.73
2018-09-10T08:52:13.359Z,8.53
2018-09-10T08:54:42.011Z,8.00
2018-09-10T08:57:09.832Z,7.93
2018-09-10T08:59:38.055Z,8.93
2018-09-10T09:02:07.364Z,8.63
2018-09-10T09:04:35.608Z,8.53
2018-09-10T09:07:03.773Z,8.23
2018-09-10T09:09:31.985Z,7.40
2018-09-10T09:12:00.276Z,8.80
2018-09-10T09:14:28.495Z,8.70
2018-09-10T09:16:56.687Z,7.73
2018-09-10T09:19:24.867Z,7.60
2018-09-10T09:21:53.236Z,7.23
2018-09-10T09:24:21.459Z,10.63
2018-09-10T09:26:49.672Z,8.33
2018-09-10T09:29:17.866Z,8.33
2018-09-10T09:31:46.055Z,8.07
2018-09-10T09:34:14.282Z,8.23
2018-09-10T09:36:47.807Z,8.67
2018-09-10T09:39:21.297Z,7.93
2018-09-10T09:41:54.743Z,7.80
2018-09-10T09:44:28.295Z,10.07
2018-09-10T09:46:56.475Z,8.03
2018-09-10T09:49:24.683Z,8.37
2018-09-10T09:51:52.911Z,9.27
2018-09-10T09:54:21.144Z,8.47
2018-09-10T09:56:49.322Z,8.10
2018-09-10T09:59:17.519Z,7.13
2018-09-10T10:01:52.025Z,8.37
2018-09-10T10:04:20.369Z,6.97
2018-09-10T10:06:48.478Z,8.77
2018-09-10T10:09:16.667Z,7.67
2018-09-10T10:11:44.946Z,7.80
2018-09-10T10:14:13.076Z,7.73
2018-09-10T10:16:41.260Z,7.40
2018-09-10T10:19:09.479Z,6.40
2018-09-10T10:21:37.672Z,5.53
2018-09-10T10:24:05.854Z,6.07
2018-09-10T10:26:34.044Z,6.60
2018-09-10T10:29:02.214Z,6.43
2018-09-10T10:31:30.447Z,6.40
2018-09-10T10:33:58.627Z,7.13
2018-09-10T10:36:26.874Z,7.43
2018-09-10T10:38:55.179Z,7.87
2018-09-10T10:41:23.350Z,7.77
2018-09-10T10:43:51.612Z,7.70
2018-09-10T10:46:19.795Z,8.50
2018-09-10T10:48:47.962Z,7.60
2018-09-10T10:51:16.219Z,8.33
2018-09-10T10:53:44.473Z,9.37
2018-09-10T10:56:12.795Z,8.37
2018-09-10T10:58:40.982Z,8.40
2018-09-10T11:01:09.201Z,7.67
2018-09-10T11:03:37.481Z,7.43
2018-09-10T11:06:05.698Z,7.20
2018-09-10T11:08:33.980Z,8.70
2018-09-10T11:11:02.153Z,7.07
2018-09-10T11:13:30.368Z,7.17
2018-09-10T11:15:58.549Z,7.43
2018-09-10T11:18:26.855Z,7.83
2018-09-10T11:20:55.102Z,7.40
2018-09-10T11:23:23.297Z,5.90
2018-09-10T11:25:51.583Z,6.47
2018-09-10T11:28:19.796Z,6.47
2018-09-10T11:30:48.154Z,5.93
2018-09-10T11:33:16.327Z,5.87
2018-09-10T11:35:44.543Z,5.53
2018-09-10T11:38:12.724Z,4.90
2018-09-10T11:40:40.959Z,5.50
2018-09-10T11:43:09.318Z,4.97
2018-09-10T11:45:37.532Z,5.00
2018-09-10T11:48:06.180Z,5.57
2018-09-10T11:50:34.664Z,4.73
2018-09-10T11:53:02.843Z,4.50
2018-09-10T11:55:31.134Z,4.97
2018-09-10T11:57:59.293Z,4.67
2018-09-10T12:00:27.447Z,4.10
2018-09-10T12:02:55.670Z,4.03
2018-09-10T12:05:23.911Z,3.70
2018-09-10T12:07:52.181Z,4.23
2018-09-10T12:10:20.339Z,4.43
2018-09-10T12:12:48.535Z,3.63
2018-09-10T12:15:16.703Z,3.47
2018-09-10T12:17:44.905Z,3.43
2018-09-10T12:20:13.107Z,3.87
2018-09-10T12:22:41.315Z,3.43
2018-09-10T12:25:09.514Z,3.90
2018-09-10T12:27:37.700Z,4.03
2018-09-10T12:30:05.987Z,3.50
2018-09-10T12:32:34.184Z,3.20
2018-09-10T12:35:02.372Z,3.53
2018-09-10T12:37:30.563Z,3.00
2018-09-10T12:39:58.761Z,3.60
2018-09-10T12:42:26.967Z,3.20
2018-09-10T12:44:55.168Z,3.70
2018-09-10T12:47:23.374Z,3.17
2018-09-10T12:49:51.535Z,3.60
2018-09-10T12:52:19.723Z,3.80
2018-09-10T12:54:47.911Z,3.50
2018-09-10T12:57:16.132Z,4.07
2018-09-10T12:59:44.363Z,3.60
2018-09-10T13:02:12.551Z,3.40
2018-09-10T13:04:40.786Z,3.23
2018-09-10T13:07:09.087Z,3.20
2018-09-10T13:09:37.329Z,3.23
2018-09-10T13:12:05.922Z,2.70
2018-09-10T13:14:34.239Z,3.13
2018-09-10T13:17:02.744Z,2.73
2018-09-10T13:19:31.648Z,2.77
2018-09-10T13:21:59.811Z,2.77
2018-09-10T13:24:28.214Z,2.13
2018-09-10T13:26:56.855Z,3.33
2018-09-10T13:29:25.065Z,2.87
2018-09-10T13:31:53.430Z,2.47
2018-09-10T13:34:21.792Z,2.97
2018-09-10T13:36:50.216Z,2.60
2018-09-10T13:39:18.581Z,2.63
2018-09-10T13:41:46.812Z,3.00
2018-09-10T13:44:14.992Z,2.73
2018-09-10T13:46:43.610Z,2.90
2018-09-10T13:49:11.927Z,2.80
2018-09-10T13:51:40.530Z,2.70
2018-09-10T13:54:09.026Z,2.90
2018-09-10T13:56:37.389Z,3.07
2018-09-10T13:59:05.880Z,2.57
2018-09-10T14:01:34.066Z,2.63
2018-09-10T14:04:02.274Z,2.47
2018-09-10T14:06:30.451Z,2.37
2018-09-10T14:08:58.623Z,2.43
2018-09-10T14:11:26.786Z,2.60
2018-09-10T14:13:55.046Z,2.83
2018-09-10T14:16:23.247Z,2.50
2018-09-10T14:18:51.572Z,2.87
2018-09-10T14:21:19.856Z,2.70
2018-09-10T14:23:48.016Z,2.60
2018-09-10T14:26:16.222Z,2.17
2018-09-10T14:28:44.662Z,2.60
2018-09-10T14:31:12.938Z,2.27
2018-09-10T14:33:41.449Z,2.73
2018-09-10T14:36:09.751Z,2.20
2018-09-10T14:38:38.031Z,2.37
2018-09-10T14:41:06.469Z,2.13
2018-09-10T14:43:34.719Z,2.50
2018-09-10T14:46:02.894Z,2.50
2018-09-10T14:48:31.370Z,2.93
2018-09-10T14:50:59.648Z,2.50
2018-09-10T14:53:27.830Z,2.60
2018-09-10T14:55:56.030Z,3.00
2018-09-10T14:58:24.304Z,2.77
2018-09-10T15:00:52.472Z,3.10
2018-09-10T15:03:20.675Z,2.57
2018-09-10T15:05:48.913Z,2.63
2018-09-10T15:08:17.118Z,2.27
2018-09-10T15:10:45.785Z,3.07
2018-09-10T15:13:13.955Z,2.93
2018-09-10T15:15:42.141Z,3.10
2018-09-10T15:18:10.548Z,3.07
2018-09-10T15:20:38.843Z,2.73
2018-09-10T15:23:07.184Z,3.10
2018-09-10T15:25:35.350Z,2.27
2018-09-10T15:28:03.550Z,2.27
2018-09-10T15:30:31.747Z,2.73
2018-09-10T15:32:59.978Z,2.70
2018-09-10T15:35:28.191Z,2.67
2018-09-10T15:37:56.355Z,2.70
2018-09-10T15:40:24.559Z,2.50
2018-09-10T15:42:52.768Z,2.57
2018-09-10T15:45:20.983Z,2.67
2018-09-10T15:47:49.134Z,2.57
2018-09-10T15:50:17.319Z,2.53
2018-09-10T15:52:45.640Z,2.20
2018-09-10T15:55:14.079Z,2.43
2018-09-10T15:57:42.301Z,2.60
2018-09-10T16:00:10.936Z,2.33
2018-09-10T16:02:39.063Z,2.93
2018-09-10T16:05:07.578Z,2.50
2018-09-10T16:07:35.830Z,2.53
2018-09-10T16:10:04.071Z,2.50
2018-09-10T16:12:32.303Z,3.13
2018-09-10T16:15:00.438Z,2.77
2018-09-10T16:17:28.624Z,2.43
2018-09-10T16:19:56.830Z,2.43
2018-09-10T16:22:25.074Z,2.37
2018-09-10T16:24:53.291Z,2.20
2018-09-10T16:27:21.549Z,2.93
2018-09-10T16:29:49.663Z,2.90
2018-09-10T16:32:17.853Z,2.30
2018-09-10T16:34:46.056Z,2.60
2018-09-10T16:37:14.232Z,2.80
2018-09-10T16:39:42.494Z,2.27
2018-09-10T16:42:10.679Z,2.60
2018-09-10T16:44:39.619Z,2.53
2018-09-10T16:47:07.927Z,2.20
2018-09-10T16:49:36.168Z,2.67
2018-09-10T16:52:04.395Z,2.30
2018-09-10T16:54:32.646Z,2.00
2018-09-10T16:57:00.785Z,2.50
2018-09-10T16:59:28.983Z,2.70
2018-09-10T17:01:57.211Z,3.00
2018-09-10T17:04:25.418Z,2.20
2018-09-10T17:06:53.643Z,2.40
2018-09-10T17:09:21.944Z,3.03
2018-09-10T17:11:50.168Z,2.50
2018-09-10T17:14:18.592Z,2.97
2018-09-10T17:16:46.860Z,2.80
2018-09-10T17:19:15.173Z,2.83
2018-09-10T17:21:43.447Z,5.37
2018-09-10T17:24:11.722Z,5.33
2018-09-10T17:26:40.213Z,3.43
2018-09-10T17:29:08.485Z,3.10
2018-09-10T17:31:38.995Z,2.80
2018-09-10T17:34:07.300Z,2.73
2018-09-10T17:36:35.559Z,2.57
2018-09-10T17:39:04.627Z,2.90
2018-09-10T17:41:32.955Z,3.90
2018-09-10T17:44:01.293Z,3.37
2018-09-10T17:46:29.524Z,3.30
2018-09-10T17:48:57.799Z,3.00
2018-09-10T17:51:26.009Z,3.17
2018-09-10T17:53:54.288Z,2.43
2018-09-10T17:56:22.565Z,2.80
2018-09-10T17:58:50.890Z,3.20
2018-09-10T18:01:19.152Z,2.60
2018-09-10T18:03:47.415Z,2.77
2018-09-10T18:06:15.707Z,3.27
2018-09-10T18:08:43.923Z,3.00
2018-09-10T18:11:12.296Z,3.00
2018-09-10T18:13:40.661Z,2.63
2018-09-10T18:16:09.098Z,3.33
2018-09-10T18:18:37.425Z,2.80
2018-09-10T18:21:05.689Z,2.90
2018-09-10T18:23:34.104Z,3.73
2018-09-10T18:26:02.436Z,3.80
2018-09-10T18:28:30.645Z,3.80
2018-09-10T18:30:58.943Z,3.57
2018-09-10T18:33:27.212Z,3.90
2018-09-10T18:35:55.479Z,3.93
2018-09-10T18:38:30.253Z,3.43
2018-09-10T18:40:58.423Z,3.60
2018-09-10T18:43:26.648Z,3.50
2018-09-10T18:45:55.052Z,3.67
2018-09-10T18:48:23.273Z,3.33
2018-09-10T18:50:51.439Z,4.03
2018-09-10T18:53:19.661Z,3.97
2018-09-10T18:55:47.883Z,3.90
2018-09-10T18:58:16.055Z,4.13
2018-09-10T19:00:44.304Z,3.83
2018-09-10T19:03:12.470Z,3.70
2018-09-10T19:05:40.687Z,3.60
2018-09-10T19:08:08.882Z,4.17
2018-09-10T19:10:37.098Z,4.13
2018-09-10T19:13:05.385Z,4.17
2018-09-10T19:15:33.588Z,4.40
2018-09-10T19:18:01.843Z,4.53
2018-09-10T19:20:29.975Z,4.20
2018-09-10T19:22:58.139Z,4.07
2018-09-10T19:25:26.323Z,3.93
2018-09-10T19:27:54.511Z,4.13
2018-09-10T19:30:22.781Z,4.23
2018-09-10T19:32:51.125Z,5.50
2018-09-10T19:35:19.474Z,5.53
2018-09-10T19:37:47.656Z,5.50
2018-09-10T19:40:15.875Z,5.17
2018-09-10T19:42:44.042Z,5.57
2018-09-10T19:45:12.247Z,5.67
2018-09-10T19:47:40.518Z,5.90
2018-09-10T19:50:08.755Z,5.90
2018-09-10T19:52:36.987Z,5.80
2018-09-10T19:55:05.223Z,5.50
2018-09-10T19:57:33.420Z,5.00
2018-09-10T20:00:01.623Z,5.30
2018-09-10T20:02:29.831Z,5.00
2018-09-10T20:04:58.035Z,5.77
2018-09-10T20:07:26.219Z,4.80
2018-09-10T20:09:54.443Z,3.93
2018-09-10T20:12:22.654Z,4.30
2018-09-10T20:14:50.885Z,3.50
2018-09-10T20:17:19.086Z,4.27
2018-09-10T20:19:47.258Z,4.50
2018-09-10T20:22:17.013Z,3.87
2018-09-10T20:24:45.204Z,4.30
2018-09-10T20:27:13.483Z,4.60
2018-09-10T20:29:41.770Z,4.50
2018-09-10T20:32:09.987Z,4.00
2018-09-10T20:34:38.198Z,3.57
2018-09-10T20:37:06.388Z,3.63
2018-09-10T20:39:34.596Z,4.10
2018-09-10T20:42:02.903Z,3.77
2018-09-10T20:44:31.151Z,4.33
2018-09-10T20:46:59.367Z,3.90
2018-09-10T20:49:27.565Z,4.10
2018-09-10T20:51:55.845Z,3.73
2018-09-10T20:54:24.050Z,3.67
2018-09-10T20:56:52.238Z,3.50
2018-09-10T20:59:20.431Z,3.97
2018-09-10T21:01:50.317Z,4.10
2018-09-10T21:04:18.556Z,4.10
2018-09-10T21:06:46.770Z,4.03
2018-09-10T21:09:15.023Z,4.77
2018-09-10T21:11:43.213Z,4.30
2018-09-10T21:14:11.589Z,4.13
2018-09-10T21:16:39.830Z,3.93
2018-09-10T21:19:08.187Z,4.27
2018-09-10T21:21:36.381Z,3.30
2018-09-10T21:24:04.725Z,3.60
2018-09-10T21:26:32.924Z,3.10
2018-09-10T21:29:01.171Z,3.70
2018-09-10T21:31:29.619Z,3.13
2018-09-10T21:33:57.953Z,3.60
2018-09-10T21:36:26.232Z,3.43
2018-09-10T21:38:54.591Z,4.73
2018-09-10T21:41:22.850Z,3.70
2018-09-10T21:43:51.107Z,3.27
2018-09-10T21:46:19.286Z,3.70
2018-09-10T21:48:47.503Z,3.90
2018-09-10T21:51:15.707Z,3.33
2018-09-10T21:53:44.253Z,3.50
2018-09-10T21:56:12.466Z,3.37
2018-09-10T21:58:40.789Z,3.80
2018-09-10T22:01:09.203Z,3.67
2018-09-10T22:03:37.543Z,4.23
2018-09-10T22:06:05.704Z,3.40
2018-09-10T22:08:33.898Z,3.47
2018-09-10T22:11:02.135Z,3.57
2018-09-10T22:13:30.374Z,4.07
2018-09-10T22:15:58.571Z,3.80
2018-09-10T22:18:26.799Z,3.77
2018-09-10T22:20:55.010Z,4.40
2018-09-10T22:23:23.207Z,3.93
2018-09-10T22:25:51.471Z,3.43
2018-09-10T22:28:19.646Z,3.50
2018-09-10T22:30:47.831Z,3.37
2018-09-10T22:33:15.989Z,3.37
2018-09-10T22:35:44.158Z,3.20
2018-09-10T22:38:12.396Z,3.43
2018-09-10T22:40:40.568Z,3.43
2018-09-10T22:43:08.780Z,3.27
2018-09-10T22:45:36.979Z,3.40
2018-09-10T22:48:05.536Z,3.00
2018-09-10T22:50:33.782Z,3.47
2018-09-10T22:53:01.972Z,3.13
2018-09-10T22:55:30.507Z,3.30
2018-09-10T22:57:58.671Z,2.93
2018-09-10T23:00:26.850Z,3.07
2018-09-10T23:02:55.066Z,3.07
2018-09-10T23:05:23.263Z,3.13
2018-09-10T23:07:51.519Z,3.37
2018-09-10T23:10:19.688Z,3.27
2018-09-10T23:12:47.882Z,3.17
2018-09-10T23:15:16.067Z,3.27
2018-09-10T23:17:44.227Z,2.90
2018-09-10T23:20:12.410Z,3.33
2018-09-10T23:22:40.654Z,3.67
2018-09-10T23:25:08.852Z,3.00
2018-09-10T23:27:37.080Z,3.00
2018-09-10T23:30:05.299Z,2.63
2018-09-10T23:32:34.360Z,2.70
2018-09-10T23:35:02.523Z,2.67
2018-09-10T23:37:30.753Z,2.87
2018-09-10T23:39:58.943Z,2.70
2018-09-10T23:42:27.164Z,2.90
2018-09-10T23:44:55.374Z,3.43
2018-09-10T23:47:23.549Z,2.50
2018-09-10T23:49:51.755Z,2.50
2018-09-10T23:52:19.964Z,2.90
2018-09-10T23:54:48.139Z,2.70
2018-09-10T23:57:16.336Z,3.00
2018-09-10T23:59:44.524Z,2.73
